sensor_id;sensor_type;location;lat;lon;timestamp;P1;durP1;ratioP1;P2;durP2;ratioP2
23171;SDS011;11754;42.664;23.594;2022-07-25T00:00:21;11.93;;;9.35;;
23171;SDS011;11754;42.664;23.594;2022-07-25T00:02:47;11.90;;;9.43;;
23171;SDS011;11754;42.664;23.594;2022-07-25T00:05:12;13.52;;;8.95;;
23171;SDS011;11754;42.664;23.594;2022-07-25T00:07:37;11.23;;;9.10;;
23171;SDS011;11754;42.664;23.594;2022-07-25T00:10:03;11.75;;;8.93;;
23171;SDS011;11754;42.664;23.594;2022-07-25T00:12:29;11.98;;;8.98;;
23171;SDS011;11754;42.664;23.594;2022-07-25T00:14:54;12.23;;;9.18;;
23171;SDS011;11754;42.664;23.594;2022-07-25T00:17:20;14.98;;;9.38;;
23171;SDS011;11754;42.664;23.594;2022-07-25T00:19:45;11.55;;;9.35;;
23171;SDS011;11754;42.664;23.594;2022-07-25T00:22:10;12.23;;;9.45;;
23171;SDS011;11754;42.664;23.594;2022-07-25T00:24:36;13.95;;;8.80;;
23171;SDS011;11754;42.664;23.594;2022-07-25T00:27:01;10.50;;;8.93;;
23171;SDS011;11754;42.664;23.594;2022-07-25T00:29:27;11.65;;;9.13;;
23171;SDS011;11754;42.664;23.594;2022-07-25T00:31:53;15.27;;;9.50;;
23171;SDS011;11754;42.664;23.594;2022-07-25T00:34:19;16.05;;;9.35;;
23171;SDS011;11754;42.664;23.594;2022-07-25T00:36:44;11.82;;;9.00;;
23171;SDS011;11754;42.664;23.594;2022-07-25T00:39:09;10.50;;;9.50;;
23171;SDS011;11754;42.664;23.594;2022-07-25T00:41:35;11.38;;;8.85;;
23171;SDS011;11754;42.664;23.594;2022-07-25T00:44:00;11.20;;;9.13;;
23171;SDS011;11754;42.664;23.594;2022-07-25T00:46:26;14.68;;;9.10;;
23171;SDS011;11754;42.664;23.594;2022-07-25T00:48:52;9.60;;;8.60;;
23171;SDS011;11754;42.664;23.594;2022-07-25T00:51:17;13.10;;;9.60;;
23171;SDS011;11754;42.664;23.594;2022-07-25T00:53:43;12.48;;;9.32;;
23171;SDS011;11754;42.664;23.594;2022-07-25T00:56:09;15.00;;;9.48;;
23171;SDS011;11754;42.664;23.594;2022-07-25T00:58:35;11.02;;;9.25;;
23171;SDS011;11754;42.664;23.594;2022-07-25T01:01:00;16.27;;;9.85;;
23171;SDS011;11754;42.664;23.594;2022-07-25T01:03:26;11.00;;;9.80;;
23171;SDS011;11754;42.664;23.594;2022-07-25T01:05:52;12.32;;;9.27;;
23171;SDS011;11754;42.664;23.594;2022-07-25T01:08:18;14.70;;;10.20;;
23171;SDS011;11754;42.664;23.594;2022-07-25T01:10:45;12.45;;;9.82;;
23171;SDS011;11754;42.664;23.594;2022-07-25T01:13:11;12.38;;;10.25;;
23171;SDS011;11754;42.664;23.594;2022-07-25T01:15:36;13.38;;;9.63;;
23171;SDS011;11754;42.664;23.594;2022-07-25T01:18:02;12.45;;;10.02;;
23171;SDS011;11754;42.664;23.594;2022-07-25T01:20:28;12.13;;;10.85;;
23171;SDS011;11754;42.664;23.594;2022-07-25T01:22:55;13.20;;;10.43;;
23171;SDS011;11754;42.664;23.594;2022-07-25T01:25:21;13.52;;;10.20;;
23171;SDS011;11754;42.664;23.594;2022-07-25T01:27:47;12.68;;;10.50;;
23171;SDS011;11754;42.664;23.594;2022-07-25T01:30:13;12.93;;;10.43;;
23171;SDS011;11754;42.664;23.594;2022-07-25T01:32:40;15.90;;;10.93;;
23171;SDS011;11754;42.664;23.594;2022-07-25T01:35:07;14.50;;;10.32;;
23171;SDS011;11754;42.664;23.594;2022-07-25T01:37:34;14.88;;;11.18;;
23171;SDS011;11754;42.664;23.594;2022-07-25T01:39:59;13.88;;;10.85;;
23171;SDS011;11754;42.664;23.594;2022-07-25T01:42:25;15.90;;;10.80;;
23171;SDS011;11754;42.664;23.594;2022-07-25T01:44:50;16.42;;;11.23;;
23171;SDS011;11754;42.664;23.594;2022-07-25T01:47:16;14.82;;;11.00;;
23171;SDS011;11754;42.664;23.594;2022-07-25T01:49:42;12.48;;;10.70;;
23171;SDS011;11754;42.664;23.594;2022-07-25T01:52:08;12.65;;;11.35;;
23171;SDS011;11754;42.664;23.594;2022-07-25T01:54:34;16.02;;;11.35;;
23171;SDS011;11754;42.664;23.594;2022-07-25T01:57:00;13.70;;;11.80;;
23171;SDS011;11754;42.664;23.594;2022-07-25T01:59:25;15.30;;;11.30;;
23171;SDS011;11754;42.664;23.594;2022-07-25T02:01:51;14.80;;;11.07;;
23171;SDS011;11754;42.664;23.594;2022-07-25T02:04:16;14.23;;;11.25;;
23171;SDS011;11754;42.664;23.594;2022-07-25T02:06:41;12.60;;;11.40;;
23171;SDS011;11754;42.664;23.594;2022-07-25T02:09:07;17.38;;;11.95;;
23171;SDS011;11754;42.664;23.594;2022-07-25T02:11:33;13.35;;;11.88;;
23171;SDS011;11754;42.664;23.594;2022-07-25T02:13:58;15.32;;;12.05;;
23171;SDS011;11754;42.664;23.594;2022-07-25T02:16:24;17.45;;;13.02;;
23171;SDS011;11754;42.664;23.594;2022-07-25T02:18:49;17.55;;;12.80;;
23171;SDS011;11754;42.664;23.594;2022-07-25T02:21:15;13.55;;;12.20;;
23171;SDS011;11754;42.664;23.594;2022-07-25T02:23:41;15.88;;;12.93;;
23171;SDS011;11754;42.664;23.594;2022-07-25T02:26:07;14.27;;;12.77;;
23171;SDS011;11754;42.664;23.594;2022-07-25T02:28:32;20.00;;;13.55;;
23171;SDS011;11754;42.664;23.594;2022-07-25T02:30:58;20.42;;;12.60;;
23171;SDS011;11754;42.664;23.594;2022-07-25T02:33:23;16.95;;;12.93;;
23171;SDS011;11754;42.664;23.594;2022-07-25T02:35:48;19.48;;;12.05;;
23171;SDS011;11754;42.664;23.594;2022-07-25T02:38:14;18.27;;;12.55;;
23171;SDS011;11754;42.664;23.594;2022-07-25T02:40:46;14.30;;;12.80;;
23171;SDS011;11754;42.664;23.594;2022-07-25T02:43:13;16.13;;;12.80;;
23171;SDS011;11754;42.664;23.594;2022-07-25T02:45:39;14.48;;;12.70;;
23171;SDS011;11754;42.664;23.594;2022-07-25T02:48:04;20.50;;;13.45;;
23171;SDS011;11754;42.664;23.594;2022-07-25T02:50:30;17.17;;;13.18;;
23171;SDS011;11754;42.664;23.594;2022-07-25T02:52:55;16.10;;;12.70;;
23171;SDS011;11754;42.664;23.594;2022-07-25T02:55:21;16.13;;;13.55;;
23171;SDS011;11754;42.664;23.594;2022-07-25T02:57:46;20.08;;;13.43;;
23171;SDS011;11754;42.664;23.594;2022-07-25T03:00:12;14.75;;;13.00;;
23171;SDS011;11754;42.664;23.594;2022-07-25T03:02:39;18.98;;;13.35;;
23171;SDS011;11754;42.664;23.594;2022-07-25T03:05:08;14.68;;;13.15;;
23171;SDS011;11754;42.664;23.594;2022-07-25T03:07:36;15.88;;;12.75;;
23171;SDS011;11754;42.664;23.594;2022-07-25T03:10:03;19.25;;;13.55;;
23171;SDS011;11754;42.664;23.594;2022-07-25T03:12:31;22.88;;;14.18;;
23171;SDS011;11754;42.664;23.594;2022-07-25T03:14:57;17.85;;;13.40;;
23171;SDS011;11754;42.664;23.594;2022-07-25T03:17:23;19.75;;;13.85;;
23171;SDS011;11754;42.664;23.594;2022-07-25T03:19:49;16.20;;;14.32;;
23171;SDS011;11754;42.664;23.594;2022-07-25T03:22:15;19.38;;;14.13;;
23171;SDS011;11754;42.664;23.594;2022-07-25T03:24:40;19.73;;;13.82;;
23171;SDS011;11754;42.664;23.594;2022-07-25T03:27:06;22.92;;;15.55;;
23171;SDS011;11754;42.664;23.594;2022-07-25T03:29:31;16.42;;;14.70;;
23171;SDS011;11754;42.664;23.594;2022-07-25T03:31:57;19.00;;;13.88;;
23171;SDS011;11754;42.664;23.594;2022-07-25T03:34:23;21.08;;;15.50;;
23171;SDS011;11754;42.664;23.594;2022-07-25T03:36:48;19.55;;;14.27;;
23171;SDS011;11754;42.664;23.594;2022-07-25T03:39:14;17.63;;;14.55;;
23171;SDS011;11754;42.664;23.594;2022-07-25T03:41:39;20.75;;;14.65;;
23171;SDS011;11754;42.664;23.594;2022-07-25T03:44:05;21.02;;;15.00;;
23171;SDS011;11754;42.664;23.594;2022-07-25T03:46:30;19.58;;;15.80;;
23171;SDS011;11754;42.664;23.594;2022-07-25T03:48:56;20.15;;;15.13;;
23171;SDS011;11754;42.664;23.594;2022-07-25T03:51:21;19.48;;;14.82;;
23171;SDS011;11754;42.664;23.594;2022-07-25T03:53:47;22.20;;;15.32;;
23171;SDS011;11754;42.664;23.594;2022-07-25T03:56:49;18.80;;;14.93;;
23171;SDS011;11754;42.664;23.594;2022-07-25T03:59:15;22.23;;;14.43;;
23171;SDS011;11754;42.664;23.594;2022-07-25T04:01:43;20.63;;;15.60;;
23171;SDS011;11754;42.664;23.594;2022-07-25T04:04:09;25.73;;;15.43;;
23171;SDS011;11754;42.664;23.594;2022-07-25T04:06:35;28.27;;;16.15;;
23171;SDS011;11754;42.664;23.594;2022-07-25T04:09:01;28.70;;;16.90;;
23171;SDS011;11754;42.664;23.594;2022-07-25T04:11:28;27.35;;;17.50;;
23171;SDS011;11754;42.664;23.594;2022-07-25T04:13:55;22.80;;;17.02;;
23171;SDS011;11754;42.664;23.594;2022-07-25T04:16:21;22.90;;;16.77;;
23171;SDS011;11754;42.664;23.594;2022-07-25T04:22:08;22.55;;;16.77;;
23171;SDS011;11754;42.664;23.594;2022-07-25T04:24:34;21.15;;;17.02;;
23171;SDS011;11754;42.664;23.594;2022-07-25T04:27:00;22.40;;;16.17;;
23171;SDS011;11754;42.664;23.594;2022-07-25T04:29:25;23.90;;;16.30;;
23171;SDS011;11754;42.664;23.594;2022-07-25T04:31:51;16.80;;;14.30;;
23171;SDS011;11754;42.664;23.594;2022-07-25T04:34:17;19.60;;;14.98;;
23171;SDS011;11754;42.664;23.594;2022-07-25T04:36:43;17.05;;;15.05;;
23171;SDS011;11754;42.664;23.594;2022-07-25T04:39:08;16.27;;;14.10;;
23171;SDS011;11754;42.664;23.594;2022-07-25T04:41:33;15.15;;;13.52;;
23171;SDS011;11754;42.664;23.594;2022-07-25T04:43:59;17.75;;;14.30;;
23171;SDS011;11754;42.664;23.594;2022-07-25T04:46:24;18.58;;;14.65;;
23171;SDS011;11754;42.664;23.594;2022-07-25T04:48:50;24.52;;;14.00;;
23171;SDS011;11754;42.664;23.594;2022-07-25T04:51:16;19.30;;;14.50;;
23171;SDS011;11754;42.664;23.594;2022-07-25T04:53:42;20.75;;;15.38;;
23171;SDS011;11754;42.664;23.594;2022-07-25T04:56:07;18.08;;;14.90;;
23171;SDS011;11754;42.664;23.594;2022-07-25T04:58:33;17.60;;;13.93;;
23171;SDS011;11754;42.664;23.594;2022-07-25T05:00:58;20.45;;;15.20;;
23171;SDS011;11754;42.664;23.594;2022-07-25T05:03:24;16.65;;;14.75;;
23171;SDS011;11754;42.664;23.594;2022-07-25T05:05:49;27.13;;;14.63;;
23171;SDS011;11754;42.664;23.594;2022-07-25T05:08:15;17.63;;;14.77;;
23171;SDS011;11754;42.664;23.594;2022-07-25T05:10:40;19.55;;;13.98;;
23171;SDS011;11754;42.664;23.594;2022-07-25T05:13:07;21.73;;;14.35;;
23171;SDS011;11754;42.664;23.594;2022-07-25T05:15:33;18.27;;;13.77;;
23171;SDS011;11754;42.664;23.594;2022-07-25T05:17:59;16.73;;;13.25;;
23171;SDS011;11754;42.664;23.594;2022-07-25T05:20:25;19.90;;;13.50;;
23171;SDS011;11754;42.664;23.594;2022-07-25T05:22:51;19.00;;;13.10;;
23171;SDS011;11754;42.664;23.594;2022-07-25T05:25:16;20.48;;;14.43;;
23171;SDS011;11754;42.664;23.594;2022-07-25T05:27:42;17.70;;;12.35;;
23171;SDS011;11754;42.664;23.594;2022-07-25T05:30:08;14.45;;;11.45;;
23171;SDS011;11754;42.664;23.594;2022-07-25T05:32:35;19.30;;;11.15;;
23171;SDS011;11754;42.664;23.594;2022-07-25T05:35:01;17.52;;;11.73;;
23171;SDS011;11754;42.664;23.594;2022-07-25T05:37:26;17.02;;;11.82;;
23171;SDS011;11754;42.664;23.594;2022-07-25T05:39:51;17.10;;;11.05;;
23171;SDS011;11754;42.664;23.594;2022-07-25T05:42:17;16.58;;;10.38;;
23171;SDS011;11754;42.664;23.594;2022-07-25T05:44:42;11.50;;;9.90;;
23171;SDS011;11754;42.664;23.594;2022-07-25T05:47:11;18.67;;;10.00;;
23171;SDS011;11754;42.664;23.594;2022-07-25T05:49:37;16.40;;;10.05;;
23171;SDS011;11754;42.664;23.594;2022-07-25T05:52:03;19.08;;;9.65;;
23171;SDS011;11754;42.664;23.594;2022-07-25T05:54:29;14.65;;;9.30;;
23171;SDS011;11754;42.664;23.594;2022-07-25T05:56:55;16.17;;;9.40;;
23171;SDS011;11754;42.664;23.594;2022-07-25T05:59:20;14.65;;;9.15;;
23171;SDS011;11754;42.664;23.594;2022-07-25T06:01:46;14.52;;;9.43;;
23171;SDS011;11754;42.664;23.594;2022-07-25T06:04:11;14.63;;;9.75;;
23171;SDS011;11754;42.664;23.594;2022-07-25T06:06:36;16.90;;;9.02;;
23171;SDS011;11754;42.664;23.594;2022-07-25T06:09:02;15.80;;;9.45;;
23171;SDS011;11754;42.664;23.594;2022-07-25T06:11:28;14.93;;;8.02;;
23171;SDS011;11754;42.664;23.594;2022-07-25T06:13:55;11.63;;;8.27;;
23171;SDS011;11754;42.664;23.594;2022-07-25T06:16:21;16.45;;;9.13;;
23171;SDS011;11754;42.664;23.594;2022-07-25T06:18:46;17.58;;;9.13;;
23171;SDS011;11754;42.664;23.594;2022-07-25T06:21:11;12.77;;;8.63;;
23171;SDS011;11754;42.664;23.594;2022-07-25T06:23:37;13.65;;;8.75;;
23171;SDS011;11754;42.664;23.594;2022-07-25T06:26:02;10.38;;;8.00;;
23171;SDS011;11754;42.664;23.594;2022-07-25T06:28:28;12.68;;;8.65;;
23171;SDS011;11754;42.664;23.594;2022-07-25T06:30:53;19.48;;;8.70;;
23171;SDS011;11754;42.664;23.594;2022-07-25T06:33:19;12.73;;;8.43;;
23171;SDS011;11754;42.664;23.594;2022-07-25T06:35:44;17.23;;;8.88;;
23171;SDS011;11754;42.664;23.594;2022-07-25T06:38:10;10.63;;;8.10;;
23171;SDS011;11754;42.664;23.594;2022-07-25T06:40:35;12.82;;;7.38;;
23171;SDS011;11754;42.664;23.594;2022-07-25T06:43:01;12.75;;;7.85;;
23171;SDS011;11754;42.664;23.594;2022-07-25T06:45:26;10.88;;;7.00;;
23171;SDS011;11754;42.664;23.594;2022-07-25T06:47:51;11.07;;;7.32;;
23171;SDS011;11754;42.664;23.594;2022-07-25T06:50:17;10.48;;;6.85;;
23171;SDS011;11754;42.664;23.594;2022-07-25T06:52:44;8.70;;;7.40;;
23171;SDS011;11754;42.664;23.594;2022-07-25T06:55:10;11.82;;;7.50;;
23171;SDS011;11754;42.664;23.594;2022-07-25T06:57:37;14.55;;;7.53;;
23171;SDS011;11754;42.664;23.594;2022-07-25T07:00:06;11.73;;;7.25;;
23171;SDS011;11754;42.664;23.594;2022-07-25T07:02:34;10.20;;;6.95;;
23171;SDS011;11754;42.664;23.594;2022-07-25T07:05:15;14.25;;;7.00;;
23171;SDS011;11754;42.664;23.594;2022-07-25T07:07:41;11.82;;;6.57;;
23171;SDS011;11754;42.664;23.594;2022-07-25T07:10:07;12.70;;;6.53;;
23171;SDS011;11754;42.664;23.594;2022-07-25T07:12:32;14.15;;;7.60;;
23171;SDS011;11754;42.664;23.594;2022-07-25T07:14:58;13.65;;;6.78;;
23171;SDS011;11754;42.664;23.594;2022-07-25T07:17:23;12.05;;;6.80;;
23171;SDS011;11754;42.664;23.594;2022-07-25T07:19:49;13.40;;;7.57;;
23171;SDS011;11754;42.664;23.594;2022-07-25T07:22:14;9.88;;;6.55;;
23171;SDS011;11754;42.664;23.594;2022-07-25T07:24:40;13.13;;;7.07;;
23171;SDS011;11754;42.664;23.594;2022-07-25T07:27:05;14.93;;;6.75;;
23171;SDS011;11754;42.664;23.594;2022-07-25T07:29:30;13.00;;;6.38;;
23171;SDS011;11754;42.664;23.594;2022-07-25T07:31:56;9.20;;;6.90;;
23171;SDS011;11754;42.664;23.594;2022-07-25T07:34:21;13.38;;;6.57;;
23171;SDS011;11754;42.664;23.594;2022-07-25T07:36:47;10.40;;;6.63;;
23171;SDS011;11754;42.664;23.594;2022-07-25T07:39:12;10.60;;;6.50;;
23171;SDS011;11754;42.664;23.594;2022-07-25T07:41:37;7.95;;;5.97;;
23171;SDS011;11754;42.664;23.594;2022-07-25T07:44:04;8.80;;;6.65;;
23171;SDS011;11754;42.664;23.594;2022-07-25T07:46:29;8.27;;;6.88;;
23171;SDS011;11754;42.664;23.594;2022-07-25T07:48:55;10.23;;;6.70;;
23171;SDS011;11754;42.664;23.594;2022-07-25T07:51:20;9.80;;;6.70;;
23171;SDS011;11754;42.664;23.594;2022-07-25T07:53:45;9.98;;;7.03;;
23171;SDS011;11754;42.664;23.594;2022-07-25T07:56:29;11.57;;;6.15;;
23171;SDS011;11754;42.664;23.594;2022-07-25T07:58:55;10.80;;;6.85;;
23171;SDS011;11754;42.664;23.594;2022-07-25T08:01:20;10.95;;;6.60;;
23171;SDS011;11754;42.664;23.594;2022-07-25T08:03:46;13.00;;;6.47;;
23171;SDS011;11754;42.664;23.594;2022-07-25T08:06:11;10.13;;;6.20;;
23171;SDS011;11754;42.664;23.594;2022-07-25T08:08:36;14.23;;;6.13;;
23171;SDS011;11754;42.664;23.594;2022-07-25T08:11:03;11.40;;;6.30;;
23171;SDS011;11754;42.664;23.594;2022-07-25T08:13:29;10.98;;;6.45;;
23171;SDS011;11754;42.664;23.594;2022-07-25T08:15:58;9.77;;;6.53;;
23171;SDS011;11754;42.664;23.594;2022-07-25T08:18:25;10.88;;;5.88;;
23171;SDS011;11754;42.664;23.594;2022-07-25T08:20:53;9.60;;;5.88;;
23171;SDS011;11754;42.664;23.594;2022-07-25T08:23:19;10.45;;;5.88;;
23171;SDS011;11754;42.664;23.594;2022-07-25T08:25:45;12.68;;;6.15;;
23171;SDS011;11754;42.664;23.594;2022-07-25T08:28:11;10.57;;;6.30;;
23171;SDS011;11754;42.664;23.594;2022-07-25T08:30:37;9.70;;;7.40;;
23171;SDS011;11754;42.664;23.594;2022-07-25T08:33:05;20.15;;;8.38;;
23171;SDS011;11754;42.664;23.594;2022-07-25T08:35:32;17.98;;;7.82;;
23171;SDS011;11754;42.664;23.594;2022-07-25T08:37:58;13.18;;;6.78;;
23171;SDS011;11754;42.664;23.594;2022-07-25T08:40:25;10.85;;;6.60;;
23171;SDS011;11754;42.664;23.594;2022-07-25T08:42:53;9.57;;;6.93;;
23171;SDS011;11754;42.664;23.594;2022-07-25T08:45:20;9.00;;;5.60;;
23171;SDS011;11754;42.664;23.594;2022-07-25T08:47:47;11.93;;;6.15;;
23171;SDS011;11754;42.664;23.594;2022-07-25T08:50:16;12.57;;;7.90;;
23171;SDS011;11754;42.664;23.594;2022-07-25T08:52:43;8.02;;;6.35;;
23171;SDS011;11754;42.664;23.594;2022-07-25T08:55:10;13.77;;;8.05;;
23171;SDS011;11754;42.664;23.594;2022-07-25T08:57:38;11.07;;;7.90;;
23171;SDS011;11754;42.664;23.594;2022-07-25T09:00:07;11.35;;;7.43;;
23171;SDS011;11754;42.664;23.594;2022-07-25T09:02:39;13.85;;;6.65;;
23171;SDS011;11754;42.664;23.594;2022-07-25T09:05:05;9.90;;;5.72;;
23171;SDS011;11754;42.664;23.594;2022-07-25T09:07:36;8.20;;;5.47;;
23171;SDS011;11754;42.664;23.594;2022-07-25T09:12:39;7.53;;;4.93;;
23171;SDS011;11754;42.664;23.594;2022-07-25T09:15:06;7.45;;;6.32;;
23171;SDS011;11754;42.664;23.594;2022-07-25T09:17:33;11.90;;;6.22;;
23171;SDS011;11754;42.664;23.594;2022-07-25T09:20:00;11.70;;;4.97;;
23171;SDS011;11754;42.664;23.594;2022-07-25T09:22:26;9.32;;;6.30;;
23171;SDS011;11754;42.664;23.594;2022-07-25T09:24:51;6.85;;;4.85;;
23171;SDS011;11754;42.664;23.594;2022-07-25T09:27:17;7.80;;;5.78;;
23171;SDS011;11754;42.664;23.594;2022-07-25T09:29:43;8.40;;;5.70;;
23171;SDS011;11754;42.664;23.594;2022-07-25T09:32:21;6.10;;;5.35;;
23171;SDS011;11754;42.664;23.594;2022-07-25T09:34:47;8.25;;;5.13;;
23171;SDS011;11754;42.664;23.594;2022-07-25T09:37:18;7.97;;;4.68;;
23171;SDS011;11754;42.664;23.594;2022-07-25T09:39:51;8.98;;;4.70;;
23171;SDS011;11754;42.664;23.594;2022-07-25T09:42:17;6.20;;;4.40;;
23171;SDS011;11754;42.664;23.594;2022-07-25T09:47:36;7.25;;;4.50;;
23171;SDS011;11754;42.664;23.594;2022-07-25T09:50:03;10.85;;;6.88;;
23171;SDS011;11754;42.664;23.594;2022-07-25T09:52:30;7.75;;;5.88;;
23171;SDS011;11754;42.664;23.594;2022-07-25T09:54:57;6.80;;;4.85;;
23171;SDS011;11754;42.664;23.594;2022-07-25T09:57:30;8.05;;;4.55;;
23171;SDS011;11754;42.664;23.594;2022-07-25T09:59:57;5.80;;;4.38;;
23171;SDS011;11754;42.664;23.594;2022-07-25T10:05:12;4.10;;;3.42;;
23171;SDS011;11754;42.664;23.594;2022-07-25T10:07:49;7.63;;;3.90;;
23171;SDS011;11754;42.664;23.594;2022-07-25T10:10:20;4.38;;;3.50;;
23171;SDS011;11754;42.664;23.594;2022-07-25T10:13:00;5.32;;;3.33;;
23171;SDS011;11754;42.664;23.594;2022-07-25T10:15:37;15.70;;;12.23;;
23171;SDS011;11754;42.664;23.594;2022-07-25T10:18:08;4.75;;;2.75;;
23171;SDS011;11754;42.664;23.594;2022-07-25T10:20:34;4.68;;;2.90;;
23171;SDS011;11754;42.664;23.594;2022-07-25T10:23:00;5.28;;;2.97;;
23171;SDS011;11754;42.664;23.594;2022-07-25T10:25:26;5.85;;;2.97;;
23171;SDS011;11754;42.664;23.594;2022-07-25T10:27:52;4.32;;;2.95;;
23171;SDS011;11754;42.664;23.594;2022-07-25T10:30:32;6.53;;;2.95;;
23171;SDS011;11754;42.664;23.594;2022-07-25T10:33:03;5.65;;;2.80;;
23171;SDS011;11754;42.664;23.594;2022-07-25T10:35:39;5.70;;;2.80;;
23171;SDS011;11754;42.664;23.594;2022-07-25T10:38:06;4.78;;;2.90;;
23171;SDS011;11754;42.664;23.594;2022-07-25T10:40:42;4.90;;;2.80;;
23171;SDS011;11754;42.664;23.594;2022-07-25T10:48:19;6.32;;;2.67;;
23171;SDS011;11754;42.664;23.594;2022-07-25T10:51:08;8.48;;;2.53;;
23171;SDS011;11754;42.664;23.594;2022-07-25T10:53:43;5.00;;;2.10;;
23171;SDS011;11754;42.664;23.594;2022-07-25T10:56:13;2.85;;;2.08;;
23171;SDS011;11754;42.664;23.594;2022-07-25T10:58:50;11.07;;;2.50;;
23171;SDS011;11754;42.664;23.594;2022-07-25T11:01:22;3.67;;;2.22;;
23171;SDS011;11754;42.664;23.594;2022-07-25T11:03:50;5.95;;;2.65;;
23171;SDS011;11754;42.664;23.594;2022-07-25T11:06:40;7.90;;;2.58;;
23171;SDS011;11754;42.664;23.594;2022-07-25T11:09:19;4.40;;;2.40;;
23171;SDS011;11754;42.664;23.594;2022-07-25T11:11:45;4.38;;;2.30;;
23171;SDS011;11754;42.664;23.594;2022-07-25T11:14:18;5.97;;;1.95;;
23171;SDS011;11754;42.664;23.594;2022-07-25T11:16:49;2.25;;;1.77;;
23171;SDS011;11754;42.664;23.594;2022-07-25T11:19:21;3.88;;;1.70;;
23171;SDS011;11754;42.664;23.594;2022-07-25T11:21:50;5.20;;;1.50;;
23171;SDS011;11754;42.664;23.594;2022-07-25T11:24:17;3.65;;;1.40;;
23171;SDS011;11754;42.664;23.594;2022-07-25T11:26:52;5.88;;;1.63;;
23171;SDS011;11754;42.664;23.594;2022-07-25T11:29:21;3.38;;;1.13;;
23171;SDS011;11754;42.664;23.594;2022-07-25T11:31:55;2.28;;;1.10;;
23171;SDS011;11754;42.664;23.594;2022-07-25T11:34:27;4.00;;;1.38;;
23171;SDS011;11754;42.664;23.594;2022-07-25T11:37:01;1.73;;;1.20;;
23171;SDS011;11754;42.664;23.594;2022-07-25T11:39:36;2.95;;;1.50;;
23171;SDS011;11754;42.664;23.594;2022-07-25T11:42:03;3.78;;;1.00;;
23171;SDS011;11754;42.664;23.594;2022-07-25T11:44:35;1.95;;;1.20;;
23171;SDS011;11754;42.664;23.594;2022-07-25T11:47:06;4.73;;;1.40;;
23171;SDS011;11754;42.664;23.594;2022-07-25T11:49:47;1.70;;;1.10;;
23171;SDS011;11754;42.664;23.594;2022-07-25T11:52:46;2.22;;;1.30;;
23171;SDS011;11754;42.664;23.594;2022-07-25T11:55:11;8.55;;;2.00;;
23171;SDS011;11754;42.664;23.594;2022-07-25T11:57:41;8.25;;;1.90;;
23171;SDS011;11754;42.664;23.594;2022-07-25T12:00:09;6.40;;;1.90;;
23171;SDS011;11754;42.664;23.594;2022-07-25T12:02:36;4.10;;;1.98;;
23171;SDS011;11754;42.664;23.594;2022-07-25T12:10:01;4.53;;;4.00;;
23171;SDS011;11754;42.664;23.594;2022-07-25T12:12:26;5.00;;;2.65;;
23171;SDS011;11754;42.664;23.594;2022-07-25T12:14:51;2.75;;;2.20;;
23171;SDS011;11754;42.664;23.594;2022-07-25T12:17:17;5.78;;;1.90;;
23171;SDS011;11754;42.664;23.594;2022-07-25T12:19:44;3.65;;;1.80;;
23171;SDS011;11754;42.664;23.594;2022-07-25T12:22:11;3.42;;;1.98;;
23171;SDS011;11754;42.664;23.594;2022-07-25T12:24:36;5.45;;;1.67;;
23171;SDS011;11754;42.664;23.594;2022-07-25T12:27:02;2.97;;;1.73;;
23171;SDS011;11754;42.664;23.594;2022-07-25T12:29:27;4.90;;;2.25;;
23171;SDS011;11754;42.664;23.594;2022-07-25T12:31:52;2.63;;;2.17;;
23171;SDS011;11754;42.664;23.594;2022-07-25T12:34:18;2.50;;;2.20;;
23171;SDS011;11754;42.664;23.594;2022-07-25T12:36:46;2.78;;;2.28;;
23171;SDS011;11754;42.664;23.594;2022-07-25T12:39:12;5.45;;;2.63;;
23171;SDS011;11754;42.664;23.594;2022-07-25T12:41:37;4.28;;;2.30;;
23171;SDS011;11754;42.664;23.594;2022-07-25T12:44:04;3.15;;;2.00;;
23171;SDS011;11754;42.664;23.594;2022-07-25T12:46:29;4.70;;;1.95;;
23171;SDS011;11754;42.664;23.594;2022-07-25T12:48:55;5.30;;;1.80;;
23171;SDS011;11754;42.664;23.594;2022-07-25T12:51:21;4.18;;;2.20;;
23171;SDS011;11754;42.664;23.594;2022-07-25T12:53:46;3.95;;;2.10;;
23171;SDS011;11754;42.664;23.594;2022-07-25T12:56:12;6.13;;;2.10;;
23171;SDS011;11754;42.664;23.594;2022-07-25T12:58:39;5.05;;;2.33;;
23171;SDS011;11754;42.664;23.594;2022-07-25T13:01:04;3.42;;;2.28;;
23171;SDS011;11754;42.664;23.594;2022-07-25T13:03:30;8.75;;;2.90;;
23171;SDS011;11754;42.664;23.594;2022-07-25T13:05:55;3.53;;;2.30;;
23171;SDS011;11754;42.664;23.594;2022-07-25T13:08:21;5.38;;;2.75;;
23171;SDS011;11754;42.664;23.594;2022-07-25T13:10:46;5.45;;;2.88;;
23171;SDS011;11754;42.664;23.594;2022-07-25T13:13:12;4.43;;;2.72;;
23171;SDS011;11754;42.664;23.594;2022-07-25T13:15:38;5.70;;;3.35;;
23171;SDS011;11754;42.664;23.594;2022-07-25T13:18:04;7.20;;;3.00;;
23171;SDS011;11754;42.664;23.594;2022-07-25T13:20:29;5.47;;;2.90;;
23171;SDS011;11754;42.664;23.594;2022-07-25T13:22:55;5.50;;;3.05;;
23171;SDS011;11754;42.664;23.594;2022-07-25T13:25:21;4.25;;;3.00;;
23171;SDS011;11754;42.664;23.594;2022-07-25T13:27:46;8.02;;;2.88;;
23171;SDS011;11754;42.664;23.594;2022-07-25T13:30:14;4.53;;;2.80;;
23171;SDS011;11754;42.664;23.594;2022-07-25T13:32:39;5.22;;;3.15;;
23171;SDS011;11754;42.664;23.594;2022-07-25T13:35:05;4.93;;;2.78;;
23171;SDS011;11754;42.664;23.594;2022-07-25T13:37:31;4.47;;;2.65;;
23171;SDS011;11754;42.664;23.594;2022-07-25T13:39:57;6.63;;;3.10;;
23171;SDS011;11754;42.664;23.594;2022-07-25T13:42:22;4.68;;;3.30;;
23171;SDS011;11754;42.664;23.594;2022-07-25T13:44:47;3.55;;;2.80;;
23171;SDS011;11754;42.664;23.594;2022-07-25T13:47:13;4.75;;;3.50;;
23171;SDS011;11754;42.664;23.594;2022-07-25T13:49:38;6.10;;;3.20;;
23171;SDS011;11754;42.664;23.594;2022-07-25T13:52:05;4.70;;;3.33;;
23171;SDS011;11754;42.664;23.594;2022-07-25T13:54:30;5.10;;;3.42;;
23171;SDS011;11754;42.664;23.594;2022-07-25T13:56:56;6.07;;;3.40;;
23171;SDS011;11754;42.664;23.594;2022-07-25T13:59:22;7.75;;;3.80;;
23171;SDS011;11754;42.664;23.594;2022-07-25T14:01:47;7.00;;;3.47;;
23171;SDS011;11754;42.664;23.594;2022-07-25T14:04:13;7.95;;;3.38;;
23171;SDS011;11754;42.664;23.594;2022-07-25T14:06:39;6.80;;;3.63;;
23171;SDS011;11754;42.664;23.594;2022-07-25T14:09:04;6.60;;;3.75;;
23171;SDS011;11754;42.664;23.594;2022-07-25T14:11:30;16.40;;;4.13;;
23171;SDS011;11754;42.664;23.594;2022-07-25T14:13:55;7.40;;;3.63;;
23171;SDS011;11754;42.664;23.594;2022-07-25T14:16:21;7.10;;;3.85;;
23171;SDS011;11754;42.664;23.594;2022-07-25T14:18:47;6.72;;;4.05;;
23171;SDS011;11754;42.664;23.594;2022-07-25T14:21:12;6.28;;;4.00;;
23171;SDS011;11754;42.664;23.594;2022-07-25T14:23:38;5.53;;;3.90;;
23171;SDS011;11754;42.664;23.594;2022-07-25T14:26:04;6.25;;;3.90;;
23171;SDS011;11754;42.664;23.594;2022-07-25T14:28:30;7.55;;;3.97;;
23171;SDS011;11754;42.664;23.594;2022-07-25T14:30:55;4.28;;;3.85;;
23171;SDS011;11754;42.664;23.594;2022-07-25T14:33:23;6.65;;;3.95;;
23171;SDS011;11754;42.664;23.594;2022-07-25T14:35:49;6.43;;;4.13;;
23171;SDS011;11754;42.664;23.594;2022-07-25T14:38:14;6.05;;;4.22;;
23171;SDS011;11754;42.664;23.594;2022-07-25T14:40:40;7.45;;;4.03;;
23171;SDS011;11754;42.664;23.594;2022-07-25T14:43:05;4.60;;;3.83;;